Time;durP1;ratioP1;P1;durP2;ratioP2;P2;SDS_P1;SDS_P2;PMS_P1;PMS_P2;Temp;Humidity;BMP_temperature;BMP_pressure;BME280_temperature;BME280_humidity;BME280_pressure;Samples;Min_cycle;Max_cycle;Signal;HPM_P1;HPM_P2
2023/07/26 00:00:07;;;;;;;;;;;14.50;99.90;;;;;;4995425;28;19957;-44
2023/07/26 00:02:34;;;;;;;;;;;14.50;99.90;;;;;;4979187;28;19921;-44
2023/07/26 00:05:01;;;;;;;;;;;14.50;99.90;;;;;;4994861;28;19976;-43
2023/07/26 00:07:27;;;;;;;;;;;14.50;99.90;;;;;;4994225;28;20374;-44
2023/07/26 00:09:54;;;;;;;;;;;14.50;99.90;;;;;;4994289;28;19922;-44
2023/07/26 00:12:21;;;;;;;;;;;14.50;99.90;;;;;;4975193;28;19968;-44
2023/07/26 00:14:49;;;;;;;;;;;14.50;99.90;;;;;;4993040;28;19926;-44
2023/07/26 00:17:15;;;;;;;;;;;14.50;99.90;;;;;;4978564;28;19984;-43
2023/07/26 00:19:42;;;;;;;;;;;14.40;99.90;;;;;;4986373;28;20346;-44
2023/07/26 00:22:09;;;;;;;;;;;14.40;99.90;;;;;;4977692;28;19921;-44
2023/07/26 00:24:35;;;;;;;;;;;14.40;99.90;;;;;;4974352;28;19969;-43
2023/07/26 00:27:02;;;;;;;;;;;14.40;99.90;;;;;;4969960;28;19926;-43
2023/07/26 00:29:29;;;;;;;;;;;14.40;99.90;;;;;;4975148;28;19929;-43
2023/07/26 00:31:57;;;;;;;;;;;14.40;99.90;;;;;;4994912;28;19929;-44
2023/07/26 00:34:24;;;;;;;;;;;14.30;99.90;;;;;;4993863;28;19930;-43
2023/07/26 00:36:50;;;;;;;;;;;14.30;99.90;;;;;;4993331;28;19945;-43
2023/07/26 00:39:18;;;;;;;;;;;14.30;99.90;;;;;;4993980;28;19929;-44
2023/07/26 00:41:45;;;;;;;;;;;14.30;99.90;;;;;;4976722;28;20012;-43
2023/07/26 00:44:11;;;;;;;;;;;14.30;99.90;;;;;;4995421;28;21901;-43
2023/07/26 00:46:38;;;;;;;;;;;14.30;99.90;;;;;;4976337;28;19921;-44
2023/07/26 00:49:06;;;;;;;;;;;14.30;99.90;;;;;;4956748;28;20271;-43
2023/07/26 00:51:34;;;;;;;;;;;14.30;99.90;;;;;;4993787;28;19980;-43
2023/07/26 00:54:00;;;;;;;;;;;14.20;99.90;;;;;;4976221;28;19926;-43
2023/07/26 00:56:27;;;;;;;;;;;14.20;99.90;;;;;;4978284;28;19929;-43
2023/07/26 00:58:54;;;;;;;;;;;14.20;99.90;;;;;;4976042;28;19922;-44
2023/07/26 01:01:20;;;;;;;;;;;14.20;99.90;;;;;;4975834;28;19922;-43
2023/07/26 01:03:47;;;;;;;;;;;14.20;99.90;;;;;;4993293;28;19922;-43
2023/07/26 01:06:18;;;;;;;;;;;14.20;99.90;;;;;;4991789;28;19942;-44
2023/07/26 01:08:49;;;;;;;;;;;14.10;99.90;;;;;;4984042;28;19929;-43
2023/07/26 01:11:16;;;;;;;;;;;14.20;99.90;;;;;;4986699;28;19925;-43
2023/07/26 01:13:45;;;;;;;;;;;14.10;99.90;;;;;;4974237;28;20338;-42
2023/07/26 01:16:12;;;;;;;;;;;14.10;99.90;;;;;;4975959;28;19921;-43
2023/07/26 01:18:38;;;;;;;;;;;14.10;99.90;;;;;;4975650;28;19949;-42
2023/07/26 01:21:05;;;;;;;;;;;14.10;99.90;;;;;;4994529;28;19926;-42
2023/07/26 01:23:35;;;;;;;;;;;14.00;99.90;;;;;;4955853;28;19926;-42
2023/07/26 01:26:01;;;;;;;;;;;14.00;99.90;;;;;;4970514;28;19922;-43
2023/07/26 01:28:28;;;;;;;;;;;14.00;99.90;;;;;;4993172;28;19980;-42
2023/07/26 01:30:54;;;;;;;;;;;13.90;99.90;;;;;;4994658;28;19929;-42
2023/07/26 01:33:21;;;;;;;;;;;13.90;99.90;;;;;;4991976;28;19994;-42
2023/07/26 01:35:48;;;;;;;;;;;13.90;99.90;;;;;;4977281;28;19922;-42
2023/07/26 01:38:15;;;;;;;;;;;13.90;99.90;;;;;;4992687;28;19945;-42
2023/07/26 01:40:43;;;;;;;;;;;13.80;99.90;;;;;;4975653;28;19944;-43
2023/07/26 01:43:10;;;;;;;;;;;13.80;99.90;;;;;;4992046;28;20279;-42
2023/07/26 01:45:36;;;;;;;;;;;13.80;99.90;;;;;;4972845;28;19921;-40
2023/07/26 01:48:03;;;;;;;;;;;13.80;99.90;;;;;;4974440;28;19929;-42
2023/07/26 01:50:30;;;;;;;;;;;13.70;99.90;;;;;;4991495;28;20384;-44
2023/07/26 01:52:57;;;;;;;;;;;13.70;99.90;;;;;;4992107;28;19921;-43
2023/07/26 01:55:23;;;;;;;;;;;13.70;99.90;;;;;;4992496;28;20456;-43
2023/07/26 01:57:51;;;;;;;;;;;13.70;99.90;;;;;;4992362;28;19922;-42
2023/07/26 02:00:18;;;;;;;;;;;13.60;99.90;;;;;;4992077;28;20047;-42
2023/07/26 02:02:45;;;;;;;;;;;13.60;99.90;;;;;;4970588;28;19926;-43
2023/07/26 02:05:11;;;;;;;;;;;13.60;99.90;;;;;;4967153;28;20386;-43
2023/07/26 02:07:38;;;;;;;;;;;13.50;99.90;;;;;;4981202;28;20042;-43
2023/07/26 02:10:05;;;;;;;;;;;13.50;99.90;;;;;;4972986;28;19937;-43
2023/07/26 02:12:32;;;;;;;;;;;13.50;99.90;;;;;;4989200;28;19921;-42
2023/07/26 02:15:00;;;;;;;;;;;13.40;99.90;;;;;;4987122;28;19979;-43
2023/07/26 02:17:27;;;;;;;;;;;13.40;99.90;;;;;;4955655;28;19922;-43
2023/07/26 02:19:53;;;;;;;;;;;13.40;99.90;;;;;;4970090;28;19943;-43
2023/07/26 02:22:20;;;;;;;;;;;13.40;99.90;;;;;;4986660;28;19926;-43
2023/07/26 02:24:47;;;;;;;;;;;13.40;99.90;;;;;;4964912;28;19968;-44
2023/07/26 02:27:13;;;;;;;;;;;13.30;99.90;;;;;;4986028;28;19922;-43
2023/07/26 02:29:40;;;;;;;;;;;13.30;99.90;;;;;;4981796;28;20369;-43
2023/07/26 02:32:08;;;;;;;;;;;13.30;99.90;;;;;;4978807;28;19921;-43
2023/07/26 02:34:36;;;;;;;;;;;13.30;99.90;;;;;;4976475;28;19922;-44
2023/07/26 02:37:03;;;;;;;;;;;13.20;99.90;;;;;;4993307;28;19922;-42
2023/07/26 02:39:30;;;;;;;;;;;13.20;99.90;;;;;;4974785;28;19992;-43
2023/07/26 02:41:56;;;;;;;;;;;13.20;99.90;;;;;;4986602;28;19922;-43
2023/07/26 02:44:23;;;;;;;;;;;13.20;99.90;;;;;;4983953;28;19925;-43
2023/07/26 02:46:50;;;;;;;;;;;13.20;99.90;;;;;;4993690;28;19944;-43
2023/07/26 02:49:18;;;;;;;;;;;13.20;99.90;;;;;;4993556;28;19925;-43
2023/07/26 02:51:44;;;;;;;;;;;13.10;99.90;;;;;;4976292;28;20293;-43
2023/07/26 02:54:11;;;;;;;;;;;13.10;99.90;;;;;;4991054;28;19926;-41
2023/07/26 02:56:38;;;;;;;;;;;13.10;99.90;;;;;;4975411;28;19929;-43
2023/07/26 02:59:04;;;;;;;;;;;13.10;99.90;;;;;;4976093;28;19985;-43
2023/07/26 03:01:31;;;;;;;;;;;13.10;99.90;;;;;;4993484;28;20289;-43
2023/07/26 03:03:58;;;;;;;;;;;13.10;99.90;;;;;;4991830;28;19921;-43
2023/07/26 03:06:26;;;;;;;;;;;13.00;99.90;;;;;;4987917;28;19929;-43
2023/07/26 03:08:53;;;;;;;;;;;13.00;99.90;;;;;;4972907;28;20000;-44
2023/07/26 03:11:20;;;;;;;;;;;13.00;99.90;;;;;;4976241;28;19932;-43
2023/07/26 03:13:46;;;;;;;;;;;13.00;99.90;;;;;;4990943;28;19925;-43
2023/07/26 03:16:15;;;;;;;;;;;13.00;99.90;;;;;;4991476;28;19928;-43
2023/07/26 03:18:42;;;;;;;;;;;13.00;99.90;;;;;;4982755;28;19985;-43
2023/07/26 03:21:08;;;;;;;;;;;13.00;99.90;;;;;;4972448;28;19981;-43
2023/07/26 03:23:37;;;;;;;;;;;13.00;99.90;;;;;;4974404;28;19922;-43
2023/07/26 03:26:04;;;;;;;;;;;13.00;99.90;;;;;;4991417;28;19928;-43
2023/07/26 03:28:30;;;;;;;;;;;13.00;99.90;;;;;;4990601;28;19921;-43
2023/07/26 03:30:57;;;;;;;;;;;13.00;99.90;;;;;;4991120;28;19922;-42
2023/07/26 03:33:24;;;;;;;;;;;13.00;99.90;;;;;;4991107;28;19980;-43
2023/07/26 03:35:51;;;;;;;;;;;13.00;99.90;;;;;;4992935;28;20374;-42
2023/07/26 03:38:18;;;;;;;;;;;13.00;99.90;;;;;;4987157;28;20345;-42
2023/07/26 03:40:46;;;;;;;;;;;13.10;99.90;;;;;;4983962;28;19984;-42
2023/07/26 03:43:12;;;;;;;;;;;13.10;99.90;;;;;;4974275;28;19922;-43
2023/07/26 03:45:39;;;;;;;;;;;13.10;99.90;;;;;;4990856;28;20345;-42
2023/07/26 03:48:06;;;;;;;;;;;13.10;99.90;;;;;;4974134;28;19921;-42
2023/07/26 03:50:33;;;;;;;;;;;13.10;99.90;;;;;;4992182;28;19921;-42
2023/07/26 03:52:59;;;;;;;;;;;13.10;99.90;;;;;;4990990;28;19977;-43
2023/07/26 03:55:26;;;;;;;;;;;13.10;99.90;;;;;;4990595;28;19921;-42
2023/07/26 03:57:54;;;;;;;;;;;13.10;99.90;;;;;;4990732;28;19986;-43
2023/07/26 04:00:21;;;;;;;;;;;13.10;99.90;;;;;;4988719;28;19922;-43
2023/07/26 04:02:47;;;;;;;;;;;13.10;99.90;;;;;;4991782;28;20378;-43
2023/07/26 04:05:14;;;;;;;;;;;13.10;99.90;;;;;;4991632;28;20385;-44
2023/07/26 04:07:41;;;;;;;;;;;13.10;99.90;;;;;;4969203;28;20425;-44
2023/07/26 04:10:08;;;;;;;;;;;13.00;99.90;;;;;;4961213;28;19926;-43
2023/07/26 04:12:34;;;;;;;;;;;13.10;99.90;;;;;;4974707;28;20290;-43
2023/07/26 04:15:02;;;;;;;;;;;13.10;99.90;;;;;;4975854;28;20017;-42
2023/07/26 04:17:29;;;;;;;;;;;13.10;99.90;;;;;;4984184;28;20386;-42
2023/07/26 04:19:56;;;;;;;;;;;13.10;99.90;;;;;;4989951;28;19925;-42
2023/07/26 04:22:22;;;;;;;;;;;13.20;99.90;;;;;;4992603;28;20385;-42
2023/07/26 04:24:49;;;;;;;;;;;13.20;99.90;;;;;;4978990;28;19925;-43
2023/07/26 04:27:16;;;;;;;;;;;13.20;99.90;;;;;;4979693;28;19929;-42
2023/07/26 04:29:43;;;;;;;;;;;13.20;99.90;;;;;;4978349;28;19948;-42
2023/07/26 04:32:11;;;;;;;;;;;13.20;99.90;;;;;;4993729;28;20033;-43
2023/07/26 04:34:38;;;;;;;;;;;13.20;99.90;;;;;;4976312;28;20369;-42
2023/07/26 04:37:05;;;;;;;;;;;13.20;99.90;;;;;;4993721;28;19922;-42
2023/07/26 04:39:31;;;;;;;;;;;13.20;99.90;;;;;;4978773;28;20369;-43
2023/07/26 04:41:58;;;;;;;;;;;13.20;99.90;;;;;;4978079;28;19929;-43
2023/07/26 04:44:25;;;;;;;;;;;13.20;99.90;;;;;;4978431;28;19926;-42
2023/07/26 04:46:51;;;;;;;;;;;13.20;99.90;;;;;;4978516;28;19922;-43
2023/07/26 04:49:19;;;;;;;;;;;13.20;99.90;;;;;;4967844;28;19930;-43
2023/07/26 04:51:46;;;;;;;;;;;13.20;99.90;;;;;;4975868;28;19926;-43
2023/07/26 04:54:13;;;;;;;;;;;13.20;99.90;;;;;;4958719;28;19929;-43
2023/07/26 04:56:40;;;;;;;;;;;13.20;99.90;;;;;;4986289;28;19968;-42
2023/07/26 04:59:07;;;;;;;;;;;13.20;99.90;;;;;;4976226;28;19964;-43
2023/07/26 05:01:34;;;;;;;;;;;13.30;99.90;;;;;;4993432;28;20345;-42
2023/07/26 05:04:01;;;;;;;;;;;13.30;99.90;;;;;;4995177;28;20396;-43
2023/07/26 05:06:30;;;;;;;;;;;13.30;99.90;;;;;;4995520;28;19922;-43
2023/07/26 05:08:57;;;;;;;;;;;13.30;99.90;;;;;;4962013;28;19922;-43
2023/07/26 05:11:24;;;;;;;;;;;13.30;99.90;;;;;;4972926;28;19926;-44
2023/07/26 05:13:50;;;;;;;;;;;13.40;99.90;;;;;;4991218;28;20421;-43
2023/07/26 05:16:17;;;;;;;;;;;13.40;99.90;;;;;;4975683;28;19946;-43
2023/07/26 05:18:44;;;;;;;;;;;13.40;99.90;;;;;;4985078;28;19922;-43
2023/07/26 05:21:10;;;;;;;;;;;13.40;99.90;;;;;;4992350;28;19948;-44
2023/07/26 05:23:38;;;;;;;;;;;13.60;99.90;;;;;;4977597;28;20016;-43
2023/07/26 05:26:05;;;;;;;;;;;13.50;99.90;;;;;;4992691;28;20370;-42
2023/07/26 05:28:32;;;;;;;;;;;13.50;99.90;;;;;;4993092;28;19921;-43
2023/07/26 05:30:58;;;;;;;;;;;13.50;99.90;;;;;;4993842;28;20369;-43
2023/07/26 05:33:25;;;;;;;;;;;13.60;99.90;;;;;;4992752;28;19921;-42
2023/07/26 05:35:52;;;;;;;;;;;13.60;99.90;;;;;;4977637;28;20017;-43
2023/07/26 05:38:19;;;;;;;;;;;13.70;99.90;;;;;;4993775;28;19996;-43
2023/07/26 05:40:47;;;;;;;;;;;13.70;99.90;;;;;;4977581;28;19983;-42
2023/07/26 05:43:13;;;;;;;;;;;13.80;99.90;;;;;;4994750;28;19922;-43
2023/07/26 05:45:41;;;;;;;;;;;13.90;99.90;;;;;;4994838;28;20412;-42
2023/07/26 05:48:07;;;;;;;;;;;13.90;99.90;;;;;;4994344;28;19976;-41
2023/07/26 05:50:34;;;;;;;;;;;14.00;99.90;;;;;;4993565;28;19929;-43
2023/07/26 05:53:01;;;;;;;;;;;14.00;99.90;;;;;;4954580;28;19926;-42
2023/07/26 05:55:27;;;;;;;;;;;14.00;99.90;;;;;;4987601;28;20354;-43
2023/07/26 05:57:55;;;;;;;;;;;14.00;99.90;;;;;;4994250;28;20361;-43
2023/07/26 06:00:22;;;;;;;;;;;14.00;99.90;;;;;;4992211;28;20482;-42
2023/07/26 06:02:49;;;;;;;;;;;14.00;99.90;;;;;;4994253;28;19922;-42
2023/07/26 06:05:15;;;;;;;;;;;14.00;99.90;;;;;;4975128;28;19921;-43
2023/07/26 06:07:42;;;;;;;;;;;14.00;99.90;;;;;;4994098;28;19937;-43
2023/07/26 06:10:09;;;;;;;;;;;14.10;99.90;;;;;;4975631;28;19925;-43
2023/07/26 06:12:36;;;;;;;;;;;14.10;99.90;;;;;;4994074;28;20064;-43
2023/07/26 06:15:04;;;;;;;;;;;14.20;99.90;;;;;;4993807;28;20370;-43
2023/07/26 06:17:31;;;;;;;;;;;14.10;99.90;;;;;;4993806;28;19980;-42
2023/07/26 06:19:58;;;;;;;;;;;14.20;99.90;;;;;;4976728;28;19922;-43
2023/07/26 06:22:24;;;;;;;;;;;14.20;99.90;;;;;;4973833;28;19922;-43
2023/07/26 06:24:51;;;;;;;;;;;14.30;99.90;;;;;;4977720;28;19930;-42
2023/07/26 06:27:21;;;;;;;;;;;14.30;99.90;;;;;;4974623;28;19921;-42
2023/07/26 06:29:47;;;;;;;;;;;14.30;99.90;;;;;;4993561;28;20337;-43
2023/07/26 06:32:15;;;;;;;;;;;14.40;99.90;;;;;;4990311;28;19948;-42
2023/07/26 06:34:42;;;;;;;;;;;14.40;99.90;;;;;;4974385;28;20402;-42
2023/07/26 06:37:09;;;;;;;;;;;14.40;99.90;;;;;;4992230;28;20366;-42
2023/07/26 06:39:35;;;;;;;;;;;14.50;99.90;;;;;;4993787;28;19992;-42
2023/07/26 06:42:02;;;;;;;;;;;14.50;99.90;;;;;;4993550;28;19946;-42
2023/07/26 06:44:29;;;;;;;;;;;14.50;99.90;;;;;;4993329;28;20374;-42
2023/07/26 06:46:55;;;;;;;;;;;14.50;99.90;;;;;;4991206;28;19932;-43
2023/07/26 06:49:23;;;;;;;;;;;14.60;99.90;;;;;;4974529;28;19922;-42
2023/07/26 06:51:50;;;;;;;;;;;14.60;99.90;;;;;;4977387;28;19929;-42
2023/07/26 06:54:17;;;;;;;;;;;14.70;99.90;;;;;;4956855;28;20386;-42
2023/07/26 06:56:44;;;;;;;;;;;14.70;99.90;;;;;;4974089;28;20023;-43
2023/07/26 06:59:12;;;;;;;;;;;14.70;99.90;;;;;;4982731;28;19984;-42
2023/07/26 07:01:38;;;;;;;;;;;14.70;99.90;;;;;;4972591;28;20382;-42
2023/07/26 07:04:05;;;;;;;;;;;14.70;99.90;;;;;;4987667;28;20267;-42
2023/07/26 07:06:33;;;;;;;;;;;14.70;99.90;;;;;;4990971;28;20338;-42
2023/07/26 07:09:00;;;;;;;;;;;14.70;99.90;;;;;;4975943;28;20302;-43
2023/07/26 07:11:27;;;;;;;;;;;14.70;99.90;;;;;;4990848;28;19926;-43
2023/07/26 07:13:53;;;;;;;;;;;14.60;99.90;;;;;;4991317;28;19972;-42
2023/07/26 07:16:20;;;;;;;;;;;14.70;99.90;;;;;;4974898;28;19926;-43
2023/07/26 07:18:47;;;;;;;;;;;14.70;99.90;;;;;;4991003;28;19961;-42
2023/07/26 07:21:13;;;;;;;;;;;14.70;99.90;;;;;;4990616;28;19926;-42
2023/07/26 07:23:41;;;;;;;;;;;14.70;99.90;;;;;;4990529;28;19929;-43
2023/07/26 07:26:09;;;;;;;;;;;14.60;99.90;;;;;;4989673;28;20366;-42
2023/07/26 07:28:35;;;;;;;;;;;14.60;99.90;;;;;;4992781;28;19975;-41
2023/07/26 07:31:02;;;;;;;;;;;14.50;99.90;;;;;;4990818;28;19922;-41
2023/07/26 07:33:30;;;;;;;;;;;14.40;99.90;;;;;;4993085;28;19922;-41
2023/07/26 07:35:56;;;;;;;;;;;14.40;99.90;;;;;;4975377;28;19965;-42
2023/07/26 07:38:23;;;;;;;;;;;14.40;99.90;;;;;;4973512;28;19945;-42
2023/07/26 07:40:51;;;;;;;;;;;14.30;99.90;;;;;;4975783;28;20310;-41
2023/07/26 07:43:18;;;;;;;;;;;14.30;99.90;;;;;;4974954;28;19922;-42
2023/07/26 07:45:45;;;;;;;;;;;14.30;99.90;;;;;;4976937;28;20025;-41
2023/07/26 07:48:12;;;;;;;;;;;14.20;99.90;;;;;;4959272;28;19949;-41
2023/07/26 07:50:39;;;;;;;;;;;14.20;99.90;;;;;;4977054;28;19945;-41
2023/07/26 07:53:05;;;;;;;;;;;14.20;99.90;;;;;;4977076;28;19965;-41
2023/07/26 07:55:34;;;;;;;;;;;14.20;99.90;;;;;;4977565;28;19922;-42
2023/07/26 07:58:03;;;;;;;;;;;14.30;99.90;;;;;;4959105;28;19990;-41
2023/07/26 08:00:30;;;;;;;;;;;14.20;99.90;;;;;;4975698;28;19929;-41
2023/07/26 08:02:56;;;;;;;;;;;14.20;99.90;;;;;;4959827;28;19929;-42
2023/07/26 08:05:24;;;;;;;;;;;14.20;99.90;;;;;;4976955;28;19981;-42
2023/07/26 08:07:51;;;;;;;;;;;14.30;99.90;;;;;;4958690;28;19965;-41
2023/07/26 08:10:18;;;;;;;;;;;14.30;99.90;;;;;;4976770;28;20000;-42
2023/07/26 08:12:44;;;;;;;;;;;14.40;99.90;;;;;;4959698;28;19972;-42
2023/07/26 08:15:12;;;;;;;;;;;14.40;99.90;;;;;;4959677;28;19922;-44
2023/07/26 08:17:40;;;;;;;;;;;14.50;99.90;;;;;;4976469;28;19926;-43
2023/07/26 08:20:07;;;;;;;;;;;14.50;99.90;;;;;;4976439;28;19929;-42
2023/07/26 08:22:34;;;;;;;;;;;14.60;99.90;;;;;;4976786;28;19929;-43
2023/07/26 08:25:00;;;;;;;;;;;14.70;99.90;;;;;;4976530;28;19922;-43
2023/07/26 08:27:27;;;;;;;;;;;14.70;99.90;;;;;;4976415;28;19980;-43
2023/07/26 08:29:54;;;;;;;;;;;14.80;99.90;;;;;;4974170;28;19922;-43
2023/07/26 08:32:22;;;;;;;;;;;14.80;99.90;;;;;;4976337;28;19929;-43
2023/07/26 08:34:48;;;;;;;;;;;14.90;99.90;;;;;;4975264;28;19945;-42
2023/07/26 08:37:15;;;;;;;;;;;14.90;99.90;;;;;;4976443;28;19969;-42
2023/07/26 08:39:42;;;;;;;;;;;15.00;99.90;;;;;;4976198;28;19929;-42
2023/07/26 08:42:08;;;;;;;;;;;15.10;99.90;;;;;;4975082;28;19925;-42
2023/07/26 08:44:35;;;;;;;;;;;15.20;99.90;;;;;;4964856;28;19976;-42
2023/07/26 08:47:02;;;;;;;;;;;15.40;99.90;;;;;;4976957;28;19926;-42
2023/07/26 08:49:30;;;;;;;;;;;15.60;99.90;;;;;;4973053;28;19976;-42
2023/07/26 08:51:57;;;;;;;;;;;15.90;99.90;;;;;;4994010;28;19921;-42
2023/07/26 08:54:23;;;;;;;;;;;16.10;99.90;;;;;;4977952;28;19921;-42
2023/07/26 08:56:50;;;;;;;;;;;16.40;99.90;;;;;;4983719;28;19926;-42
2023/07/26 08:59:16;;;;;;;;;;;16.60;99.90;;;;;;4978506;28;19930;-42
2023/07/26 09:01:43;;;;;;;;;;;16.70;99.90;;;;;;4981688;28;19950;-42
2023/07/26 09:04:10;;;;;;;;;;;16.90;99.90;;;;;;4993462;28;19926;-43
2023/07/26 09:06:40;;;;;;;;;;;16.90;99.90;;;;;;4974253;28;19948;-42
2023/07/26 09:09:07;;;;;;;;;;;17.00;99.90;;;;;;4969545;28;19953;-43
2023/07/26 09:11:33;;;;;;;;;;;17.10;99.90;;;;;;4963638;28;19922;-42
2023/07/26 09:14:00;;;;;;;;;;;17.20;99.90;;;;;;4972457;28;19969;-43
2023/07/26 09:16:27;;;;;;;;;;;17.40;99.90;;;;;;4960495;28;20382;-42
2023/07/26 09:18:57;;;;;;;;;;;17.60;99.90;;;;;;4994739;28;19925;-43
2023/07/26 09:21:27;;;;;;;;;;;17.80;99.90;;;;;;4993639;28;20395;-43
2023/07/26 09:23:55;;;;;;;;;;;18.00;99.90;;;;;;4976055;28;20235;-43
2023/07/26 09:26:33;;;;;;;;;;;18.10;99.90;;;;;;4992965;28;20000;-42
2023/07/26 09:28:59;;;;;;;;;;;18.10;99.90;;;;;;4992789;28;19985;-43
2023/07/26 09:31:32;;;;;;;;;;;18.20;99.90;;;;;;4993345;28;20333;-42
2023/07/26 09:34:02;;;;;;;;;;;18.20;99.90;;;;;;4977655;28;20379;-43
2023/07/26 09:36:32;;;;;;;;;;;18.10;99.90;;;;;;4985216;28;19921;-43
2023/07/26 09:39:00;;;;;;;;;;;18.10;99.90;;;;;;4975348;28;19922;-43
2023/07/26 09:41:27;;;;;;;;;;;18.00;99.90;;;;;;4993653;28;19925;-42
2023/07/26 09:43:54;;;;;;;;;;;18.00;99.90;;;;;;4977369;28;19965;-42
2023/07/26 09:46:20;;;;;;;;;;;17.90;99.90;;;;;;4974606;28;19921;-43
2023/07/26 09:49:05;;;;;;;;;;;17.80;99.90;;;;;;4994457;28;19922;-42
2023/07/26 09:51:32;;;;;;;;;;;17.70;99.90;;;;;;4984452;28;19926;-42
2023/07/26 09:53:58;;;;;;;;;;;17.60;99.90;;;;;;4974885;28;20310;-42
2023/07/26 09:56:28;;;;;;;;;;;17.60;99.90;;;;;;4990181;28;20286;-42
2023/07/26 09:58:54;;;;;;;;;;;17.50;99.90;;;;;;4994034;28;19921;-43
2023/07/26 10:01:21;;;;;;;;;;;17.60;99.90;;;;;;4991394;28;20396;-42
2023/07/26 10:03:50;;;;;;;;;;;17.70;99.90;;;;;;4976872;28;19921;-43
2023/07/26 10:06:16;;;;;;;;;;;18.00;99.90;;;;;;4975007;28;19980;-42
2023/07/26 10:08:45;;;;;;;;;;;18.30;99.90;;;;;;4974690;28;20017;-43
2023/07/26 10:11:11;;;;;;;;;;;18.70;99.90;;;;;;4980348;28;19922;-42
2023/07/26 10:13:40;;;;;;;;;;;18.80;99.90;;;;;;4993930;28;19921;-42
2023/07/26 10:16:06;;;;;;;;;;;18.80;99.90;;;;;;4974724;28;19922;-42
2023/07/26 10:18:34;;;;;;;;;;;18.80;99.90;;;;;;4976664;28;20381;-42
2023/07/26 10:21:01;;;;;;;;;;;18.80;99.90;;;;;;4974571;28;19963;-43
2023/07/26 10:23:28;;;;;;;;;;;18.90;99.90;;;;;;4974791;28;19928;-42
2023/07/26 10:25:54;;;;;;;;;;;19.00;99.90;;;;;;4973999;28;19925;-43
2023/07/26 10:28:21;;;;;;;;;;;19.20;99.90;;;;;;4976106;28;20020;-43
2023/07/26 10:30:51;;;;;;;;;;;19.30;99.90;;;;;;4990077;28;19925;-42
2023/07/26 10:33:18;;;;;;;;;;;19.60;99.90;;;;;;4993150;28;19928;-43
2023/07/26 10:35:44;;;;;;;;;;;19.70;99.90;;;;;;4988326;28;19922;-43
2023/07/26 10:38:14;;;;;;;;;;;19.70;99.90;;;;;;4951073;29;19923;-42
2023/07/26 10:40:41;;;;;;;;;;;19.80;99.90;;;;;;4953894;29;19922;-43
2023/07/26 10:43:39;;;;;;;;;;;19.90;99.90;;;;;;4957588;28;20412;-42
2023/07/26 10:46:10;;;;;;;;;;;20.00;99.90;;;;;;4988142;28;19922;-43
2023/07/26 10:48:38;;;;;;;;;;;20.20;99.90;;;;;;4971830;28;19991;-43
2023/07/26 10:51:19;;;;;;;;;;;20.20;99.90;;;;;;4951084;28;19987;-42
2023/07/26 10:53:46;;;;;;;;;;;20.20;99.90;;;;;;4973869;28;20419;-43
2023/07/26 10:56:13;;;;;;;;;;;20.20;99.90;;;;;;4972876;28;20000;-42
2023/07/26 10:58:46;;;;;;;;;;;20.10;99.90;;;;;;4981273;28;20306;-42
2023/07/26 11:01:19;;;;;;;;;;;20.00;99.90;;;;;;4985713;28;19984;-43
2023/07/26 11:03:46;;;;;;;;;;;19.80;99.90;;;;;;4972585;28;19922;-43
2023/07/26 11:06:12;;;;;;;;;;;19.50;99.90;;;;;;4973428;28;20008;-43
2023/07/26 11:08:42;;;;;;;;;;;19.10;99.90;;;;;;4966040;28;19922;-43
2023/07/26 11:11:09;;;;;;;;;;;18.70;99.90;;;;;;4973498;28;20219;-42
2023/07/26 11:13:36;;;;;;;;;;;18.40;99.90;;;;;;4991288;28;19926;-42
2023/07/26 11:16:03;;;;;;;;;;;18.30;99.90;;;;;;4976080;28;19922;-42
2023/07/26 11:18:31;;;;;;;;;;;18.20;99.90;;;;;;4981792;28;19965;-42
2023/07/26 11:21:01;;;;;;;;;;;18.20;99.90;;;;;;4967751;28;19925;-44
2023/07/26 11:23:28;;;;;;;;;;;18.30;99.90;;;;;;4993764;28;19985;-43
2023/07/26 11:25:55;;;;;;;;;;;18.50;99.90;;;;;;4950733;28;20008;-42
2023/07/26 11:28:22;;;;;;;;;;;18.70;99.90;;;;;;4977743;28;19922;-43
2023/07/26 11:30:49;;;;;;;;;;;19.00;99.90;;;;;;4973391;28;20048;-43
2023/07/26 11:33:26;;;;;;;;;;;19.30;99.90;;;;;;4971512;28;20001;-43
2023/07/26 11:35:54;;;;;;;;;;;19.50;99.90;;;;;;4987540;28;19921;-43
2023/07/26 11:38:20;;;;;;;;;;;19.70;99.90;;;;;;4988462;28;19922;-43
2023/07/26 11:40:47;;;;;;;;;;;20.00;99.90;;;;;;4985809;28;19981;-43
2023/07/26 11:43:14;;;;;;;;;;;20.20;99.90;;;;;;4996767;28;19928;-42
2023/07/26 11:45:42;;;;;;;;;;;20.20;99.90;;;;;;4994873;28;20022;-43
2023/07/26 11:48:09;;;;;;;;;;;20.30;99.90;;;;;;4994752;28;19928;-42
2023/07/26 11:50:36;;;;;;;;;;;20.20;99.90;;;;;;4962020;28;20383;-42
2023/07/26 11:53:04;;;;;;;;;;;20.20;99.90;;;;;;4974342;28;19952;-42
2023/07/26 11:55:31;;;;;;;;;;;20.20;99.90;;;;;;4993899;28;19968;-43
2023/07/26 11:58:03;;;;;;;;;;;20.20;99.90;;;;;;4977901;28;19928;-42
2023/07/26 12:00:30;;;;;;;;;;;20.30;99.90;;;;;;4993940;28;20328;-43
2023/07/26 12:02:57;;;;;;;;;;;20.40;99.90;;;;;;4994753;28;19922;-42
2023/07/26 12:05:25;;;;;;;;;;;20.40;99.90;;;;;;4981537;28;19930;-43
2023/07/26 12:07:52;;;;;;;;;;;20.50;99.90;;;;;;4994745;28;19922;-42
2023/07/26 12:10:28;;;;;;;;;;;20.50;99.90;;;;;;4957139;29;19923;-43
2023/07/26 12:12:55;;;;;;;;;;;20.60;99.90;;;;;;4985682;28;19921;-43
2023/07/26 12:15:22;;;;;;;;;;;20.70;99.90;;;;;;4977307;28;19921;-43
2023/07/26 12:17:59;;;;;;;;;;;20.90;99.90;;;;;;4977005;28;19925;-43
2023/07/26 12:20:26;;;;;;;;;;;21.00;99.90;;;;;;4994097;28;19925;-43
2023/07/26 12:22:53;;;;;;;;;;;21.20;99.90;;;;;;4994893;28;19925;-43
2023/07/26 12:25:21;;;;;;;;;;;21.40;99.90;;;;;;4993332;28;20013;-43
2023/07/26 12:27:48;;;;;;;;;;;21.50;99.90;;;;;;4990909;28;19957;-43
2023/07/26 12:30:17;;;;;;;;;;;21.60;99.90;;;;;;4958982;28;19929;-42
2023/07/26 12:32:43;;;;;;;;;;;21.70;99.90;;;;;;4959584;28;20371;-43
2023/07/26 12:35:20;;;;;;;;;;;21.70;99.90;;;;;;4959304;28;19929;-42
2023/07/26 12:37:49;;;;;;;;;;;21.80;99.90;;;;;;4976109;28;19980;-43
2023/07/26 12:40:16;;;;;;;;;;;21.70;99.90;;;;;;4991250;28;19921;-42
2023/07/26 12:42:44;;;;;;;;;;;21.80;99.90;;;;;;4995796;28;19929;-43
2023/07/26 12:45:13;;;;;;;;;;;21.80;99.90;;;;;;4992006;28;19976;-42
2023/07/26 12:47:40;;;;;;;;;;;21.90;99.90;;;;;;4951555;28;19922;-43
2023/07/26 12:50:07;;;;;;;;;;;21.90;99.90;;;;;;4958960;28;19954;-43
2023/07/26 12:52:37;;;;;;;;;;;22.10;99.90;;;;;;4958764;28;19922;-42
2023/07/26 12:55:05;;;;;;;;;;;22.20;99.90;;;;;;4976015;28;19922;-42
2023/07/26 12:57:32;;;;;;;;;;;22.30;99.90;;;;;;4959273;28;20371;-43
2023/07/26 13:00:00;;;;;;;;;;;22.30;99.90;;;;;;4995481;28;19928;-42
2023/07/26 13:02:27;;;;;;;;;;;22.20;99.60;;;;;;4995257;28;19925;-42
2023/07/26 13:04:53;;;;;;;;;;;22.00;99.80;;;;;;4993375;28;19929;-43
2023/07/26 13:07:20;;;;;;;;;;;21.90;99.90;;;;;;4995156;28;19988;-43
2023/07/26 13:09:47;;;;;;;;;;;21.70;99.90;;;;;;4976297;28;19985;-43
2023/07/26 13:12:13;;;;;;;;;;;21.50;99.90;;;;;;4975561;28;19926;-42
2023/07/26 13:14:40;;;;;;;;;;;21.30;99.90;;;;;;4975262;28;19988;-43
2023/07/26 13:17:08;;;;;;;;;;;21.10;99.90;;;;;;4956764;28;19922;-42
2023/07/26 13:19:35;;;;;;;;;;;21.00;99.90;;;;;;4993649;28;20013;-42
2023/07/26 13:22:02;;;;;;;;;;;21.00;99.90;;;;;;4995070;28;19929;-43
2023/07/26 13:24:28;;;;;;;;;;;21.00;99.90;;;;;;4992736;28;19921;-42
2023/07/26 13:26:56;;;;;;;;;;;21.10;99.90;;;;;;4995076;28;20302;-43
2023/07/26 13:29:22;;;;;;;;;;;21.30;99.90;;;;;;4977753;28;19952;-43
2023/07/26 13:31:49;;;;;;;;;;;21.60;99.90;;;;;;4994163;28;19984;-42
2023/07/26 13:34:18;;;;;;;;;;;21.60;99.90;;;;;;4958627;28;19923;-43
2023/07/26 13:36:45;;;;;;;;;;;21.60;99.90;;;;;;4977067;28;19922;-43
2023/07/26 13:39:12;;;;;;;;;;;21.50;99.90;;;;;;4994803;28;19921;-42
2023/07/26 13:41:39;;;;;;;;;;;21.20;99.90;;;;;;4991725;28;20000;-42
2023/07/26 13:44:06;;;;;;;;;;;21.10;99.90;;;;;;4993287;28;19942;-42
2023/07/26 13:46:32;;;;;;;;;;;21.00;99.90;;;;;;4994564;28;20289;-42
2023/07/26 13:48:59;;;;;;;;;;;20.80;99.90;;;;;;4960737;28;19973;-42
2023/07/26 13:51:27;;;;;;;;;;;20.70;99.90;;;;;;4980031;28;20389;-42
2023/07/26 13:53:54;;;;;;;;;;;20.70;99.90;;;;;;4992290;28;19933;-43
2023/07/26 13:56:20;;;;;;;;;;;20.60;99.90;;;;;;4975289;28;20382;-42
2023/07/26 13:58:47;;;;;;;;;;;20.50;99.90;;;;;;4992523;28;19932;-42
2023/07/26 14:01:14;;;;;;;;;;;20.50;99.90;;;;;;4974056;28;20003;-42
2023/07/26 14:03:41;;;;;;;;;;;20.60;99.90;;;;;;4984598;28;19928;-42
2023/07/26 14:06:07;;;;;;;;;;;20.70;99.90;;;;;;4992700;28;20289;-43
2023/07/26 14:08:35;;;;;;;;;;;20.90;99.90;;;;;;4974937;28;19922;-42
2023/07/26 14:11:02;;;;;;;;;;;21.10;99.90;;;;;;4968297;28;19937;-42
2023/07/26 14:13:29;;;;;;;;;;;21.10;99.90;;;;;;4974773;28;20275;-42
2023/07/26 14:15:56;;;;;;;;;;;21.30;99.90;;;;;;4961167;28;19928;-43